Time;durP1;ratioP1;P1;durP2;ratioP2;P2;SDS_P1;SDS_P2;PMS_P1;PMS_P2;Temp;Humidity;BMP_temperature;BMP_pressure;BME280_temperature;BME280_humidity;BME280_pressure;Samples;Min_cycle;Max_cycle;Signal;HPM_P1;HPM_P2
2021/08/22 00:01:24;;;;;;;4.97;3.65;;;;;;;16.91;86.09;100991.41;2615166;31;20065;-47
2021/08/22 00:03:52;;;;;;;5.00;3.45;;;;;;;16.76;87.93;100988.75;2615295;31;20129;-49
2021/08/22 00:06:19;;;;;;;3.75;3.45;;;;;;;16.54;88.52;100987.75;2615094;36;20042;-48
2021/08/22 00:08:46;;;;;;;3.80;3.50;;;;;;;16.38;89.82;100985.94;2615712;31;20045;-44
2021/08/22 00:11:14;;;;;;;3.28;3.08;;;;;;;16.64;88.30;100984.38;2614623;36;20038;-43
2021/08/22 00:13:41;;;;;;;6.30;4.18;;;;;;;16.49;88.65;100981.69;2615237;31;20022;-46
2021/08/22 00:16:08;;;;;;;4.22;3.80;;;;;;;16.43;89.40;100990.25;2614549;36;20041;-49
2021/08/22 00:18:35;;;;;;;4.13;3.72;;;;;;;16.70;88.62;100981.81;2614560;36;20075;-45
2021/08/22 00:21:02;;;;;;;4.72;3.60;;;;;;;16.41;89.59;100975.63;2614635;31;20042;-47
2021/08/22 00:23:31;;;;;;;5.20;3.40;;;;;;;16.52;88.74;100974.81;2614593;31;20061;-45
2021/08/22 00:25:59;;;;;;;4.60;3.88;;;;;;;16.42;89.59;100975.63;2614917;31;20037;-47
2021/08/22 00:28:26;;;;;;;5.00;3.35;;;;;;;16.49;89.10;100968.75;2614201;36;20061;-46
2021/08/22 00:30:53;;;;;;;4.22;3.83;;;;;;;16.37;90.27;100968.69;2614357;36;20034;-45
2021/08/22 00:33:20;;;;;;;5.15;3.60;;;;;;;16.13;91.36;100966.78;2614551;31;20030;-45
2021/08/22 00:35:48;;;;;;;4.18;3.78;;;;;;;16.13;92.05;100972.84;2615500;31;20114;-44
2021/08/22 00:38:15;;;;;;;4.20;3.80;;;;;;;16.15;91.88;100967.69;2614896;36;20035;-46
2021/08/22 00:40:42;;;;;;;4.70;4.05;;;;;;;16.23;91.44;100966.03;2614858;36;20061;-45
2021/08/22 00:43:10;;;;;;;5.60;4.20;;;;;;;16.07;92.79;100962.44;2615688;36;20567;-45
2021/08/22 00:45:37;;;;;;;4.82;4.03;;;;;;;16.22;91.75;100959.09;2617335;31;20039;-48
2021/08/22 00:48:05;;;;;;;7.20;3.85;;;;;;;16.29;90.88;100954.00;2616057;31;20042;-44
2021/08/22 00:50:33;;;;;;;3.67;3.38;;;;;;;16.22;91.27;100965.16;2616008;31;20583;-45
2021/08/22 00:53:04;;;;;;;4.82;4.20;;;;;;;16.51;89.33;100961.88;2616021;31;20038;-44
2021/08/22 00:55:33;;;;;;;4.55;3.95;;;;;;;16.27;90.22;100952.28;2579942;36;2004386;-47
2021/08/22 00:58:00;;;;;;;3.92;3.50;;;;;;;16.36;90.46;100954.03;2616061;31;20041;-45
2021/08/22 01:00:27;;;;;;;6.35;4.30;;;;;;;16.08;91.55;100948.66;2615177;36;20042;-43
2021/08/22 01:03:06;;;;;;;4.85;3.78;;;;;;;16.00;91.29;100948.63;2615675;36;20448;-47
2021/08/22 01:05:54;;;;;;;5.95;4.38;;;;;;;15.98;91.89;100940.00;2579084;36;2004577;-45
2021/08/22 01:08:25;;;;;;;4.35;3.95;;;;;;;16.19;90.79;100939.28;2616881;31;20038;-43
2021/08/22 01:11:00;;;;;;;5.63;3.95;;;;;;;16.08;91.04;100940.06;2615914;31;20030;-44
2021/08/22 01:13:34;;;;;;;4.68;4.03;;;;;;;16.01;92.50;100942.59;2615967;31;20033;-43
2021/08/22 01:16:06;;;;;;;5.38;3.90;;;;;;;15.92;92.69;100936.50;2616149;31;20034;-45
2021/08/22 01:18:35;;;;;;;7.97;4.32;;;;;;;15.71;93.16;100934.59;2579619;31;2004423;-43
2021/08/22 01:21:12;;;;;;;5.07;3.85;;;;;;;15.74;93.81;100932.06;2614849;36;20038;-49
2021/08/22 01:23:48;;;;;;;4.60;4.15;;;;;;;15.54;95.17;100935.28;2614647;31;20034;-46
2021/08/22 01:26:18;;;;;;;5.53;4.47;;;;;;;15.44;95.90;100928.31;2616673;31;20022;-44
2021/08/22 01:28:47;;;;;;;5.10;4.22;;;;;;;15.58;95.70;100925.00;2615935;31;20038;-46
2021/08/22 01:31:18;;;;;;;6.05;4.28;;;;;;;15.69;95.37;100926.00;2615810;36;20829;-43
2021/08/22 01:33:48;;;;;;;5.53;4.32;;;;;;;15.65;95.35;100917.34;2615747;31;20030;-43
2021/08/22 01:36:17;;;;;;;5.82;4.28;;;;;;;15.44;97.04;100915.41;2615667;31;20474;-44
2021/08/22 01:38:44;;;;;;;6.65;4.18;;;;;;;15.43;97.12;100912.81;2615283;31;20716;-44
2021/08/22 01:41:12;;;;;;;4.93;4.47;;;;;;;15.40;97.55;100913.66;2615206;31;20562;-43
2021/08/22 01:43:40;;;;;;;5.15;4.60;;;;;;;15.69;95.86;100913.94;2615677;31;20886;-47
2021/08/22 01:46:08;;;;;;;7.13;4.53;;;;;;;15.48;96.67;100913.72;2616059;31;20680;-47
2021/08/22 01:48:39;;;;;;;5.28;4.57;;;;;;;15.29;97.65;100908.38;2615453;36;20570;-47
2021/08/22 01:51:07;;;;;;;5.10;4.60;;;;;;;15.27;98.66;100902.34;2617010;31;20041;-44
2021/08/22 01:53:36;;;;;;;5.47;4.53;;;;;;;15.26;99.11;100900.63;2615619;31;20040;-44
2021/08/22 01:56:03;;;;;;;7.28;4.97;;;;;;;15.23;98.90;100894.56;2615537;36;20724;-44
2021/08/22 01:58:30;;;;;;;4.90;4.40;;;;;;;15.13;99.34;100892.75;2615586;31;20045;-45
2021/08/22 02:00:58;;;;;;;5.70;4.40;;;;;;;15.38;98.07;100901.56;2614985;36;20038;-44
2021/08/22 02:04:01;;;;;;;6.28;4.75;;;;;;;15.41;97.95;100893.88;2615343;31;20138;-45
2021/08/22 02:06:49;;;;;;;6.45;5.03;;;;;;;15.23;98.70;100894.56;2578584;31;2004599;-44
2021/08/22 02:09:30;;;;;;;4.93;4.53;;;;;;;15.30;99.12;100886.03;2578948;31;2004382;-48
2021/08/22 02:12:04;;;;;;;7.25;4.50;;;;;;;15.14;98.81;100879.00;2615057;36;20027;-45
2021/08/22 02:14:32;;;;;;;4.47;4.00;;;;;;;15.22;98.39;100880.78;2616590;31;20022;-44
2021/08/22 02:17:03;;;;;;;6.00;4.55;;;;;;;15.18;98.08;100884.19;2616870;36;20030;-46
2021/08/22 02:19:33;;;;;;;5.90;4.20;;;;;;;15.27;97.42;100881.69;2615701;31;20064;-43
2021/08/22 02:22:01;;;;;;;4.18;3.67;;;;;;;15.26;97.88;100869.66;2616149;31;20475;-43
2021/08/22 02:24:29;;;;;;;5.10;3.70;;;;;;;15.48;96.83;100870.72;2615214;36;20030;-51
2021/08/22 02:26:56;;;;;;;5.13;4.10;;;;;;;15.46;97.02;100869.81;2615326;31;20041;-43
2021/08/22 02:29:23;;;;;;;4.18;3.40;;;;;;;15.29;97.57;100868.81;2615173;36;20812;-43
2021/08/22 02:31:50;;;;;;;5.00;3.55;;;;;;;15.26;98.25;100864.50;2615584;31;20022;-47
2021/08/22 02:34:17;;;;;;;4.03;3.63;;;;;;;15.34;97.36;100864.56;2615656;31;20065;-44
2021/08/22 02:36:44;;;;;;;8.50;4.43;;;;;;;15.27;97.89;100865.38;2615572;36;20698;-45
2021/08/22 02:39:11;;;;;;;5.40;3.85;;;;;;;15.41;95.64;100857.75;2615242;31;20037;-51
2021/08/22 02:41:38;;;;;;;4.47;4.07;;;;;;;15.32;97.23;100866.25;2615286;31;20045;-44
2021/08/22 02:44:05;;;;;;;5.55;4.30;;;;;;;15.45;96.61;100869.81;2615253;31;20038;-48
2021/08/22 02:46:32;;;;;;;5.93;4.05;;;;;;;15.43;96.54;100866.34;2614978;31;20050;-43
2021/08/22 02:49:00;;;;;;;5.28;4.40;;;;;;;15.35;96.83;100861.16;2615131;31;20039;-43
2021/08/22 02:51:27;;;;;;;4.75;3.85;;;;;;;15.32;96.66;100867.97;2614826;36;20027;-43
2021/08/22 02:53:54;;;;;;;4.63;4.22;;;;;;;15.32;96.91;100863.69;2615132;36;20042;-50
2021/08/22 02:56:21;;;;;;;4.40;3.67;;;;;;;15.33;97.19;100859.38;2616312;31;20038;-44
2021/08/22 02:58:48;;;;;;;4.43;3.83;;;;;;;15.45;96.33;100870.69;2615079;36;20124;-46
2021/08/22 03:01:15;;;;;;;4.93;4.43;;;;;;;15.50;95.09;100868.16;2614226;36;20117;-43
2021/08/22 03:03:42;;;;;;;4.57;3.63;;;;;;;15.39;96.01;100857.75;2615154;36;20042;-43
2021/08/22 03:06:10;;;;;;;4.80;3.97;;;;;;;15.41;96.10;100858.59;2614753;36;20468;-43
2021/08/22 03:08:37;;;;;;;5.47;4.18;;;;;;;15.45;95.47;100862.09;2615239;31;20042;-44
2021/08/22 03:11:04;;;;;;;5.63;3.80;;;;;;;15.33;96.65;100862.81;2614991;31;20037;-44
2021/08/22 03:13:31;;;;;;;5.43;3.63;;;;;;;15.52;95.52;100866.44;2615304;36;20042;-43
2021/08/22 03:15:58;;;;;;;4.68;4.18;;;;;;;15.61;94.41;100871.66;2615865;31;20027;-44
2021/08/22 03:18:25;;;;;;;5.30;3.63;;;;;;;15.39;95.69;100857.75;2615422;31;20046;-48
2021/08/22 03:20:52;;;;;;;6.50;4.13;;;;;;;15.40;95.55;100858.59;2614636;36;20050;-44
2021/08/22 03:23:20;;;;;;;4.35;3.60;;;;;;;15.42;95.31;100856.88;2615427;31;20023;-46
2021/08/22 03:25:47;;;;;;;6.25;3.80;;;;;;;15.44;95.72;100847.47;2615013;36;20575;-44
2021/08/22 03:28:14;;;;;;;4.72;3.58;;;;;;;15.32;96.28;100857.66;2614603;36;20031;-43
2021/08/22 03:30:41;;;;;;;6.47;4.55;;;;;;;15.38;96.05;100863.72;2615955;31;20034;-46
2021/08/22 03:33:08;;;;;;;6.13;3.75;;;;;;;15.51;95.63;100867.28;2614755;36;20038;-45
2021/08/22 03:35:35;;;;;;;4.43;3.95;;;;;;;15.26;96.56;100872.25;2614745;36;20031;-43
2021/08/22 03:38:02;;;;;;;5.72;4.22;;;;;;;15.30;96.74;100873.13;2615126;31;20602;-46
2021/08/22 03:40:29;;;;;;;4.18;3.78;;;;;;;15.26;96.88;100867.09;2614695;36;20065;-45
2021/08/22 03:42:56;;;;;;;6.38;3.70;;;;;;;15.14;96.57;100871.25;2615536;31;20073;-44
2021/08/22 03:45:23;;;;;;;5.15;3.78;;;;;;;15.13;96.85;100874.69;2614947;31;20061;-44
2021/08/22 03:47:51;;;;;;;4.65;3.88;;;;;;;15.11;96.38;100873.78;2614966;31;20031;-46
2021/08/22 03:50:18;;;;;;;4.78;3.90;;;;;;;15.09;96.70;100880.66;2614964;31;20058;-46
2021/08/22 03:52:48;;;;;;;7.68;4.10;;;;;;;15.01;96.88;100865.97;2615157;36;20030;-45
2021/08/22 03:55:16;;;;;;;4.78;3.97;;;;;;;14.91;97.64;100866.72;2615762;31;20053;-45
2021/08/22 03:57:43;;;;;;;6.03;4.45;;;;;;;14.92;97.46;100873.59;2614801;36;20030;-46
2021/08/22 04:00:11;;;;;;;5.00;4.20;;;;;;;14.91;97.33;100869.28;2614817;36;20030;-49
2021/08/22 04:02:38;;;;;;;6.10;3.95;;;;;;;14.85;97.59;100866.66;2614926;36;20094;-45
2021/08/22 04:05:08;;;;;;;4.82;3.92;;;;;;;14.84;97.75;100864.94;2614766;36;20167;-45
2021/08/22 04:07:36;;;;;;;5.00;4.18;;;;;;;14.87;98.29;100871.81;2614004;36;20041;-50
2021/08/22 04:10:07;;;;;;;4.65;4.13;;;;;;;14.90;97.75;100864.13;2614892;36;20045;-43
2021/08/22 04:12:36;;;;;;;5.60;4.07;;;;;;;14.99;97.05;100862.50;2614299;36;20571;-49
2021/08/22 04:15:03;;;;;;;4.20;3.80;;;;;;;14.95;96.86;100858.16;2615450;36;20810;-43
2021/08/22 04:17:30;;;;;;;7.45;3.90;;;;;;;14.93;96.95;100843.50;2615240;31;20030;-44
2021/08/22 04:19:58;;;;;;;5.50;3.90;;;;;;;14.90;97.60;100846.94;2617159;31;20452;-46
2021/08/22 04:22:25;;;;;;;4.47;3.72;;;;;;;14.94;97.39;100858.16;2614645;36;20057;-43
2021/08/22 04:24:52;;;;;;;4.32;3.85;;;;;;;15.09;96.51;100855.72;2615117;36;20534;-43
2021/08/22 04:27:19;;;;;;;4.30;3.90;;;;;;;15.07;95.95;100852.28;2614846;31;20038;-43
2021/08/22 04:29:46;;;;;;;5.25;3.63;;;;;;;15.15;95.54;100847.19;2614711;31;20023;-43
2021/08/22 04:32:13;;;;;;;4.47;3.83;;;;;;;15.09;95.02;100847.13;2614821;36;20034;-45
2021/08/22 04:34:40;;;;;;;5.50;3.78;;;;;;;15.09;95.22;100842.84;2614561;36;20065;-47
2021/08/22 04:37:07;;;;;;;4.78;3.72;;;;;;;15.11;95.42;100838.53;2615580;31;20038;-45
2021/08/22 04:39:34;;;;;;;6.32;3.85;;;;;;;15.36;93.70;100837.06;2615178;31;20554;-43
2021/08/22 04:42:01;;;;;;;5.40;3.53;;;;;;;15.30;93.85;100834.44;2614954;36;20570;-43
2021/08/22 04:44:28;;;;;;;5.05;3.72;;;;;;;15.57;92.84;100830.31;2614682;36;20058;-45
2021/08/22 04:46:55;;;;;;;5.05;3.50;;;;;;;15.75;91.01;100830.50;2614603;36;20069;-44
2021/08/22 04:49:22;;;;;;;5.07;3.60;;;;;;;15.54;91.22;100829.47;2614529;36;20031;-45
2021/08/22 04:51:50;;;;;;;3.53;3.22;;;;;;;15.74;91.11;100827.06;2614535;36;20039;-49
2021/08/22 04:54:18;;;;;;;3.50;3.17;;;;;;;15.68;90.58;100821.00;2614801;36;20050;-43
2021/08/22 04:56:45;;;;;;;3.90;3.50;;;;;;;15.63;91.13;100818.34;2614843;31;20027;-43
2021/08/22 04:59:12;;;;;;;4.70;4.07;;;;;;;15.71;89.96;100815.84;2615634;36;20573;-46
2021/08/22 05:01:39;;;;;;;5.40;3.75;;;;;;;15.65;90.32;100811.50;2616335;31;20046;-43
2021/08/22 05:04:06;;;;;;;7.32;3.38;;;;;;;15.85;90.03;100813.34;2616265;31;20050;-43
2021/08/22 05:06:34;;;;;;;4.70;3.75;;;;;;;15.89;89.01;100805.63;2614256;36;20038;-45
2021/08/22 05:09:01;;;;;;;4.55;3.75;;;;;;;15.92;88.27;100808.22;2615869;31;20759;-44
2021/08/22 05:11:28;;;;;;;3.75;3.42;;;;;;;16.04;86.66;100808.31;2616565;31;20088;-43
2021/08/22 05:13:55;;;;;;;3.83;3.05;;;;;;;16.09;87.01;100810.06;2615185;31;20030;-45
2021/08/22 05:16:22;;;;;;;7.32;3.20;;;;;;;16.21;86.11;100816.13;2614236;36;20038;-46
2021/08/22 05:18:49;;;;;;;5.88;3.05;;;;;;;16.51;85.26;100812.81;2615274;36;20034;-43
2021/08/22 05:21:16;;;;;;;4.18;2.83;;;;;;;16.30;86.07;100810.13;2615586;31;20585;-44
2021/08/22 05:23:43;;;;;;;5.05;3.42;;;;;;;16.44;85.54;100811.03;2614785;36;20577;-43
2021/08/22 05:26:11;;;;;;;4.78;3.22;;;;;;;16.54;84.28;100807.63;2615304;36;20026;-47
2021/08/22 05:28:38;;;;;;;6.55;3.70;;;;;;;16.28;84.62;100815.31;2615117;31;20046;-49
2021/08/22 05:31:05;;;;;;;5.07;3.22;;;;;;;16.42;84.23;100815.34;2614992;36;20039;-45
2021/08/22 05:33:33;;;;;;;4.35;3.50;;;;;;;16.47;84.22;100813.66;2615100;36;20041;-45
2021/08/22 05:36:15;;;;;;;3.92;2.97;;;;;;;16.58;84.31;100818.00;2615453;36;20211;-47
2021/08/22 05:38:42;;;;;;;3.47;3.08;;;;;;;16.67;83.40;100818.00;2578344;36;2004446;-48
2021/08/22 05:41:09;;;;;;;3.75;3.33;;;;;;;16.56;82.87;100815.41;2614159;36;20041;-47
2021/08/22 05:43:36;;;;;;;5.13;3.50;;;;;;;16.73;83.09;100816.34;2614292;36;20023;-47
2021/08/22 05:46:03;;;;;;;3.30;2.95;;;;;;;16.79;81.79;100813.78;2614654;36;20030;-47
2021/08/22 05:48:32;;;;;;;3.47;3.17;;;;;;;16.85;82.23;100817.22;2614893;36;20435;-51
2021/08/22 05:51:01;;;;;;;6.43;3.15;;;;;;;16.95;81.08;100811.22;2614278;36;20041;-45
2021/08/22 05:53:28;;;;;;;5.20;3.20;;;;;;;16.98;80.92;100813.81;2615088;31;20030;-50
2021/08/22 05:55:58;;;;;;;5.22;3.10;;;;;;;17.11;79.68;100817.28;2614914;31;20037;-46
2021/08/22 05:58:26;;;;;;;4.40;3.05;;;;;;;17.27;79.29;100819.84;2614910;36;20511;-46
2021/08/22 06:00:53;;;;;;;3.58;3.17;;;;;;;17.27;78.93;100811.22;2614850;31;20030;-49
2021/08/22 06:03:20;;;;;;;3.40;3.10;;;;;;;17.68;78.18;100815.53;2614746;31;20173;-50
2021/08/22 06:05:49;;;;;;;5.85;2.95;;;;;;;17.45;78.25;100813.81;2614088;36;20042;-47
2021/08/22 06:08:17;;;;;;;6.07;3.40;;;;;;;17.67;78.30;100819.84;2614274;36;20053;-48
2021/08/22 06:10:45;;;;;;;4.13;3.10;;;;;;;17.94;75.84;100815.53;2614820;31;20816;-50
2021/08/22 06:13:13;;;;;;;4.22;3.15;;;;;;;18.17;76.56;100816.31;2615196;31;20038;-46
2021/08/22 06:15:43;;;;;;;3.15;2.80;;;;;;;18.37;75.39;100820.56;2614566;36;20114;-47
2021/08/22 06:18:11;;;;;;;3.70;3.10;;;;;;;18.23;73.62;100821.47;2614254;36;20069;-45
2021/08/22 06:20:39;;;;;;;3.50;3.20;;;;;;;18.33;72.90;100811.91;2614271;31;20061;-45
2021/08/22 06:23:06;;;;;;;3.33;3.03;;;;;;;18.37;72.86;100816.22;2616111;31;20034;-50
2021/08/22 06:25:34;;;;;;;3.42;3.13;;;;;;;18.21;74.32;100811.94;2615138;31;20034;-45
2021/08/22 06:28:02;;;;;;;4.10;3.28;;;;;;;18.69;73.65;100808.31;2614742;31;20030;-45
2021/08/22 06:30:30;;;;;;;4.95;3.33;;;;;;;18.22;74.12;100808.53;2614326;36;20150;-47
2021/08/22 06:32:58;;;;;;;4.65;3.22;;;;;;;18.44;74.07;100802.38;2615518;31;20031;-47
2021/08/22 06:35:25;;;;;;;4.40;3.35;;;;;;;18.51;73.43;100801.47;2614362;36;20034;-45
2021/08/22 06:37:53;;;;;;;4.20;3.17;;;;;;;18.76;73.31;100802.19;2615123;31;20451;-48
2021/08/22 06:40:21;;;;;;;3.40;3.10;;;;;;;19.14;72.85;100813.22;2614249;36;20467;-48
2021/08/22 06:42:49;;;;;;;5.93;3.15;;;;;;;19.07;72.67;100809.78;2614124;36;20042;-47
2021/08/22 06:45:17;;;;;;;5.55;3.90;;;;;;;19.28;72.52;100804.44;2614796;31;20447;-46
2021/08/22 06:47:46;;;;;;;4.05;3.55;;;;;;;18.94;71.32;100805.56;2614464;31;20582;-46
2021/08/22 06:50:14;;;;;;;4.28;3.42;;;;;;;18.95;72.40;100802.97;2614697;36;20655;-47
2021/08/22 06:52:41;;;;;;;4.32;3.85;;;;;;;18.95;72.37;100794.28;2614091;36;20030;-48
2021/08/22 06:55:08;;;;;;;4.55;3.47;;;;;;;19.10;72.44;100802.00;2614241;36;20034;-48
2021/08/22 06:57:35;;;;;;;6.10;3.65;;;;;;;19.29;72.14;100800.09;2614965;31;20041;-44
2021/08/22 07:00:06;;;;;;;5.45;3.53;;;;;;;20.25;67.86;100800.88;2614227;36;20031;-45
2021/08/22 07:02:33;;;;;;;4.53;4.10;;;;;;;20.40;65.94;100800.69;2614273;36;20031;-45
2021/08/22 07:05:01;;;;;;;6.22;4.13;;;;;;;20.29;66.71;100795.63;2614348;36;20038;-46
2021/08/22 07:07:28;;;;;;;6.60;4.28;;;;;;;20.12;68.37;100779.38;2614276;36;20062;-46
2021/08/22 07:09:55;;;;;;;5.22;4.40;;;;;;;19.45;70.16;100775.72;2613964;36;20042;-45
2021/08/22 07:12:22;;;;;;;4.50;3.92;;;;;;;19.54;70.99;100773.03;2614849;31;20416;-45
2021/08/22 07:14:50;;;;;;;5.55;4.82;;;;;;;19.73;70.25;100770.28;2614188;36;20035;-47
2021/08/22 07:17:20;;;;;;;4.75;4.25;;;;;;;19.64;70.42;100773.81;2614139;31;20038;-47
2021/08/22 07:19:48;;;;;;;5.10;4.53;;;;;;;19.30;71.65;100781.06;2614294;36;20061;-45
2021/08/22 07:22:16;;;;;;;6.07;4.75;;;;;;;19.52;71.54;100789.53;2614378;31;20026;-45
2021/08/22 07:24:45;;;;;;;5.15;4.65;;;;;;;19.62;71.32;100796.38;2614358;36;20815;-47
2021/08/22 07:27:13;;;;;;;6.38;5.18;;;;;;;19.41;70.99;100791.34;2614239;36;20030;-45
2021/08/22 07:29:40;;;;;;;8.85;5.22;;;;;;;19.49;72.03;100794.72;2614481;36;20034;-45
2021/08/22 07:32:07;;;;;;;8.63;5.57;;;;;;;19.72;71.75;100785.00;2614364;36;20434;-46
2021/08/22 07:34:34;;;;;;;6.15;4.55;;;;;;;20.02;69.96;100778.63;2614326;36;20031;-45
2021/08/22 07:37:01;;;;;;;6.38;4.28;;;;;;;20.45;70.19;100778.06;2615092;31;20038;-49
2021/08/22 07:39:28;;;;;;;6.82;4.18;;;;;;;20.75;67.17;100779.41;2615937;36;20035;-44
2021/08/22 07:42:01;;;;;;;5.57;4.15;;;;;;;20.48;68.23;100777.22;2615012;36;20485;-46
2021/08/22 07:44:28;;;;;;;4.88;4.18;;;;;;;20.62;67.00;100779.63;2614145;36;20066;-47
2021/08/22 07:46:55;;;;;;;6.93;4.53;;;;;;;20.31;68.22;100777.38;2614145;31;20034;-46
2021/08/22 07:49:23;;;;;;;9.23;5.18;;;;;;;20.35;69.59;100787.75;2614234;31;20074;-48
2021/08/22 07:51:51;;;;;;;5.25;4.28;;;;;;;20.49;69.77;100777.19;2614466;31;20027;-45
2021/08/22 07:54:18;;;;;;;5.47;4.90;;;;;;;20.23;69.36;100780.09;2614887;31;20529;-48
2021/08/22 07:56:45;;;;;;;5.22;4.53;;;;;;;20.42;69.62;100778.09;2616560;31;20061;-48
2021/08/22 07:59:12;;;;;;;4.72;4.20;;;;;;;20.73;67.97;100786.38;2615630;31;20038;-45
2021/08/22 08:01:39;;;;;;;8.90;4.68;;;;;;;20.94;65.83;100774.78;2614469;31;20037;-44
2021/08/22 08:04:07;;;;;;;7.28;4.68;;;;;;;21.03;67.18;100773.75;2614075;36;20618;-46
2021/08/22 08:06:34;;;;;;;6.38;4.80;;;;;;;20.95;66.67;100783.47;2615040;31;20420;-46
2021/08/22 08:09:01;;;;;;;6.53;4.53;;;;;;;20.86;66.97;100771.44;2614591;31;20050;-44
2021/08/22 08:11:30;;;;;;;8.07;4.82;;;;;;;21.69;65.28;100777.88;2614296;31;20038;-46
2021/08/22 08:13:57;;;;;;;5.20;4.70;;;;;;;22.00;65.29;100772.91;2613539;36;20466;-45
2021/08/22 08:16:24;;;;;;;4.93;4.43;;;;;;;21.86;63.56;100775.78;2613473;36;20038;-45
2021/08/22 08:18:51;;;;;;;8.10;4.82;;;;;;;21.61;64.73;100780.63;2615447;31;20034;-48
2021/08/22 08:21:18;;;;;;;5.47;4.25;;;;;;;21.20;64.93;100776.09;2613958;36;20452;-49
2021/08/22 08:23:47;;;;;;;7.75;4.30;;;;;;;21.71;64.68;100789.97;2614457;31;20035;-47
2021/08/22 08:26:16;;;;;;;4.88;4.40;;;;;;;22.09;62.54;100786.66;2614131;31;20126;-47
2021/08/22 08:28:43;;;;;;;5.55;4.10;;;;;;;22.09;64.07;100786.66;2614312;31;20049;-47
2021/08/22 08:31:10;;;;;;;4.82;4.00;;;;;;;22.05;62.64;100785.00;2613672;31;20058;-48
2021/08/22 08:33:38;;;;;;;5.45;4.43;;;;;;;22.07;64.09;100780.59;2614027;31;20065;-46
2021/08/22 08:36:05;;;;;;;5.30;4.72;;;;;;;22.18;63.96;100788.22;2612905;36;20061;-46
2021/08/22 08:38:32;;;;;;;9.18;5.10;;;;;;;22.17;64.35;100785.66;2613970;31;20069;-45
2021/08/22 08:41:02;;;;;;;4.90;4.30;;;;;;;22.37;60.38;100780.88;2613582;31;20041;-46
2021/08/22 08:43:29;;;;;;;7.03;4.82;;;;;;;21.67;62.30;100780.50;2613743;36;20034;-46
2021/08/22 08:45:59;;;;;;;5.32;4.75;;;;;;;;;;2614146;36;20082;-44
2021/08/22 08:48:49;;;;;;;5.20;4.20;;;;;;;21.98;63.40;100772.09;2613589;36;20178;-45
2021/08/22 08:51:19;;;;;;;4.88;4.47;;;;;;;22.03;65.19;100776.31;2577470;36;2004398;-47
2021/08/22 08:54:04;;;;;;;5.55;5.03;;;;;;;22.27;64.08;100772.38;2614035;31;20035;-44
2021/08/22 08:56:39;;;;;;;5.95;4.05;;;;;;;22.65;63.96;100767.19;2614183;36;20535;-44
2021/08/22 08:59:06;;;;;;;4.40;4.00;;;;;;;22.72;60.65;100771.41;2613607;36;20069;-44
2021/08/22 09:01:36;;;;;;;6.90;4.50;;;;;;;22.69;61.49;100769.69;2614275;36;20030;-45
2021/08/22 09:04:12;;;;;;;5.40;4.00;;;;;;;23.50;59.32;100775.56;2614584;36;20033;-47
2021/08/22 09:07:15;;;;;;;4.65;4.18;;;;;;;22.72;60.15;100779.22;2578252;36;2004586;-44
2021/08/22 09:10:26;;;;;;;4.93;4.25;;;;;;;23.71;56.55;100783.75;2578566;36;2004800;-47
2021/08/22 09:13:20;;;;;;;4.43;4.03;;;;;;;23.66;56.40;100781.28;2578123;36;2004412;-44
2021/08/22 09:16:25;;;;;;;4.28;3.88;;;;;;;23.42;57.34;100777.53;2579249;31;2004513;-49
2021/08/22 09:19:30;;;;;;;4.78;3.83;;;;;;;24.10;57.01;100777.44;2577863;36;2004499;-47
2021/08/22 09:22:34;;;;;;;6.35;4.75;;;;;;;24.21;57.10;100778.88;2578122;36;2004535;-45
2021/08/22 09:25:44;;;;;;;5.15;4.65;;;;;;;23.92;56.14;100764.88;2578727;31;2004498;-48
2021/08/22 09:28:42;;;;;;;7.00;4.25;;;;;;;24.33;54.35;100774.13;2542467;31;2005067;-48
2021/08/22 09:31:45;;;;;;;5.28;4.88;;;;;;;24.98;53.77;100757.28;2578185;36;2004558;-47
2021/08/22 09:34:21;;;;;;;7.82;5.32;;;;;;;24.05;53.45;100763.63;2578824;31;2005210;-45
2021/08/22 09:37:06;;;;;;;5.05;4.45;;;;;;;24.71;53.56;100766.88;2614651;36;20035;-47
2021/08/22 09:40:11;;;;;;;5.20;4.57;;;;;;;25.55;53.91;100774.59;2614542;36;20039;-45
2021/08/22 09:43:15;;;;;;;5.55;4.50;;;;;;;25.58;52.69;100765.75;2542545;31;2004771;-49
2021/08/22 09:46:19;;;;;;;6.43;5.43;;;;;;;24.81;52.01;100762.22;2578072;36;2004613;-48
2021/08/22 09:49:26;;;;;;;7.15;5.55;;;;;;;25.92;49.73;100764.56;2578593;31;2004487;-47
2021/08/22 09:52:05;;;;;;;5.75;5.10;;;;;;;25.48;49.49;100761.75;2578565;31;2004280;-44
2021/08/22 09:54:44;;;;;;;6.82;5.22;;;;;;;25.22;51.60;100767.88;2614975;31;20034;-44
2021/08/22 09:57:39;;;;;;;6.22;5.63;;;;;;;25.11;50.76;100770.88;2578539;31;2005072;-47
2021/08/22 10:00:30;;;;;;;5.22;4.72;;;;;;;25.69;50.71;100776.72;2614221;36;20034;-45
2021/08/22 10:03:22;;;;;;;6.55;5.32;;;;;;;24.74;52.40;100768.56;2578754;31;2004658;-44
2021/08/22 10:06:08;;;;;;;6.75;5.35;;;;;;;24.63;54.63;100777.59;2578873;31;2004404;-45
2021/08/22 10:08:47;;;;;;;7.90;5.43;;;;;;;23.91;54.40;100770.16;2613627;36;20038;-45
2021/08/22 10:11:23;;;;;;;5.97;5.03;;;;;;;24.08;53.95;100768.78;2577549;36;2004918;-45
2021/08/22 10:13:52;;;;;;;10.85;5.55;;;;;;;23.75;56.13;100772.31;2614204;31;20043;-47
2021/08/22 10:16:37;;;;;;;9.43;5.43;;;;;;;23.53;62.23;100766.81;2615708;36;20034;-47
2021/08/22 10:19:09;;;;;;;8.07;6.47;;;;;;;23.01;70.72;100768.97;2614667;31;20065;-50
2021/08/22 10:21:36;;;;;;;8.75;7.68;;;;;;;21.08;81.52;100764.16;2614984;31;20477;-46
2021/08/22 10:24:09;;;;;;;13.20;8.20;;;;;;;21.15;86.37;100770.09;2615065;31;20056;-44
2021/08/22 10:26:53;;;;;;;10.95;8.57;;;;;;;21.72;88.34;100786.47;2614087;36;20452;-45
2021/08/22 10:29:25;;;;;;;13.35;9.02;;;;;;;21.12;98.00;100773.59;2578159;31;2004739;-45
2021/08/22 10:31:54;;;;;;;11.48;8.68;;;;;;;20.97;97.95;100766.91;2614240;31;20030;-47
2021/08/22 10:34:29;;;;;;;12.45;9.68;;;;;;;20.46;100.00;100773.72;2615270;31;20038;-44
2021/08/22 10:36:57;;;;;;;15.95;10.45;;;;;;;20.01;100.00;100774.31;2614977;31;20645;-47
2021/08/22 10:39:26;;;;;;;12.32;10.50;;;;;;;19.70;100.00;100780.72;2614039;36;20026;-44
2021/08/22 10:42:18;;;;;;;13.27;10.70;;;;;;;19.55;100.00;100774.78;2614303;31;20145;-48
2021/08/22 10:44:45;;;;;;;16.20;13.07;;;;;;;19.72;100.00;100771.16;2578510;31;2005650;-45
2021/08/22 10:47:34;;;;;;;20.30;13.75;;;;;;;19.40;100.00;100766.25;2613780;36;20038;-45
2021/08/22 10:50:01;;;;;;;14.60;12.18;;;;;;;19.62;100.00;100765.19;2617245;31;20037;-47
2021/08/22 10:52:36;;;;;;;17.10;12.60;;;;;;;20.02;100.00;100764.75;2614083;31;20030;-45
2021/08/22 10:55:09;;;;;;;14.50;12.57;;;;;;;19.65;100.00;100772.09;2614043;31;20053;-44
2021/08/22 10:57:44;;;;;;;15.13;13.48;;;;;;;19.65;100.00;100775.56;2613794;36;20026;-45
2021/08/22 11:00:30;;;;;;;17.15;13.93;;;;;;;19.90;100.00;100764.91;2577903;36;2004579;-47
2021/08/22 11:02:59;;;;;;;19.50;14.32;;;;;;;19.92;100.00;100758.81;2614065;36;20030;-46
2021/08/22 11:05:35;;;;;;;19.35;15.10;;;;;;;19.87;100.00;100763.19;2613544;36;20030;-44
2021/08/22 11:08:15;;;;;;;19.67;13.80;;;;;;;20.35;100.00;100772.13;2614049;36;20027;-44
2021/08/22 11:10:58;;;;;;;17.13;13.52;;;;;;;20.41;100.00;100763.38;2577954;31;2004650;-45
2021/08/22 11:13:29;;;;;;;13.18;11.60;;;;;;;20.47;100.00;100776.31;2614438;31;20657;-45
2021/08/22 11:16:02;;;;;;;14.30;12.80;;;;;;;20.37;100.00;100785.09;2613707;31;20030;-48
2021/08/22 11:18:29;;;;;;;12.90;11.57;;;;;;;20.09;100.00;100782.84;2613780;36;20478;-46
2021/08/22 11:20:56;;;;;;;17.08;13.35;;;;;;;20.17;100.00;100777.56;2613862;31;20597;-44
2021/08/22 11:23:24;;;;;;;14.57;12.85;;;;;;;20.28;100.00;100780.88;2615497;31;20587;-45
2021/08/22 11:26:06;;;;;;;13.60;12.10;;;;;;;20.72;100.00;100776.00;2615783;31;20065;-45
2021/08/22 11:28:34;;;;;;;14.85;11.98;;;;;;;20.88;100.00;100777.47;2613757;36;20561;-46
2021/08/22 11:31:14;;;;;;;12.88;11.52;;;;;;;21.11;100.00;100775.34;2614851;31;20057;-45
2021/08/22 11:33:55;;;;;;;13.68;12.27;;;;;;;20.57;100.00;100775.34;2577986;36;2004234;-45
2021/08/22 11:36:29;;;;;;;12.88;11.45;;;;;;;20.76;100.00;100785.47;2614924;36;20493;-44
2021/08/22 11:39:10;;;;;;;11.70;10.50;;;;;;;20.73;100.00;100783.78;2614337;31;20068;-45
2021/08/22 11:41:39;;;;;;;12.48;11.27;;;;;;;20.58;100.00;100781.41;2614483;31;20030;-44